sensor_id;sensor_type;location;lat;lon;timestamp;pressure;altitude;pressure_sealevel;temperature;humidity
21129;BME280;10722;51.910;8.352;2023-03-22T00:01:14;100284.59;;;9.70;100.00
21129;BME280;10722;51.910;8.352;2023-03-22T00:04:00;100277.91;;;9.83;100.00
21129;BME280;10722;51.910;8.352;2023-03-22T00:06:46;100279.66;;;9.85;99.85
21129;BME280;10722;51.910;8.352;2023-03-22T00:09:30;100270.19;;;9.87;99.63
21129;BME280;10722;51.910;8.352;2023-03-22T00:12:16;100271.03;;;9.83;99.65
21129;BME280;10722;51.910;8.352;2023-03-22T00:15:01;100272.75;;;9.83;99.49
21129;BME280;10722;51.910;8.352;2023-03-22T00:17:46;100267.53;;;9.81;99.41
21129;BME280;10722;51.910;8.352;2023-03-22T00:20:31;100265.00;;;9.84;99.19
21129;BME280;10722;51.910;8.352;2023-03-22T00:23:17;100259.84;;;9.86;99.07
21129;BME280;10722;51.910;8.352;2023-03-22T00:26:03;100258.19;;;9.90;99.05
21129;BME280;10722;51.910;8.352;2023-03-22T00:28:48;100253.88;;;9.90;98.56
21129;BME280;10722;51.910;8.352;2023-03-22T00:31:33;100249.59;;;9.92;98.28
21129;BME280;10722;51.910;8.352;2023-03-22T00:34:19;100248.81;;;9.98;97.80
21129;BME280;10722;51.910;8.352;2023-03-22T00:37:04;100240.22;;;10.02;97.29
21129;BME280;10722;51.910;8.352;2023-03-22T00:39:49;100240.19;;;9.97;97.61
21129;BME280;10722;51.910;8.352;2023-03-22T00:42:35;100239.25;;;9.92;97.43
21129;BME280;10722;51.910;8.352;2023-03-22T00:45:21;100240.13;;;9.93;97.68
21129;BME280;10722;51.910;8.352;2023-03-22T00:48:10;100241.84;;;9.92;97.46
21129;BME280;10722;51.910;8.352;2023-03-22T00:50:56;100240.13;;;9.93;97.79
21129;BME280;10722;51.910;8.352;2023-03-22T00:53:41;100226.34;;;9.92;97.54
21129;BME280;10722;51.910;8.352;2023-03-22T00:56:27;100233.19;;;9.90;97.65
21129;BME280;10722;51.910;8.352;2023-03-22T00:59:12;100223.75;;;9.92;97.40
21129;BME280;10722;51.910;8.352;2023-03-22T01:01:58;100225.38;;;9.84;97.16
21129;BME280;10722;51.910;8.352;2023-03-22T01:04:43;100225.47;;;9.92;97.65
21129;BME280;10722;51.910;8.352;2023-03-22T01:07:29;100216.88;;;9.91;97.57
21129;BME280;10722;51.910;8.352;2023-03-22T01:10:15;100222.00;;;9.90;97.51
21129;BME280;10722;51.910;8.352;2023-03-22T01:13:00;100221.09;;;9.87;97.64
21129;BME280;10722;51.910;8.352;2023-03-22T01:15:49;100218.53;;;9.86;97.66
21129;BME280;10722;51.910;8.352;2023-03-22T01:18:34;100215.00;;;9.82;98.07
21129;BME280;10722;51.910;8.352;2023-03-22T01:21:20;100215.94;;;9.87;97.73
21129;BME280;10722;51.910;8.352;2023-03-22T01:24:06;100214.22;;;9.86;98.32
21129;BME280;10722;51.910;8.352;2023-03-22T01:26:51;100209.00;;;9.85;98.38
21129;BME280;10722;51.910;8.352;2023-03-22T01:29:36;100212.59;;;9.95;98.16
21129;BME280;10722;51.910;8.352;2023-03-22T01:32:22;100210.75;;;9.84;98.25
21129;BME280;10722;51.910;8.352;2023-03-22T01:35:07;100206.44;;;9.83;98.26
21129;BME280;10722;51.910;8.352;2023-03-22T01:37:53;100205.66;;;9.92;97.91
21129;BME280;10722;51.910;8.352;2023-03-22T01:40:38;100197.06;;;9.92;98.13
21129;BME280;10722;51.910;8.352;2023-03-22T01:43:24;100196.16;;;9.90;97.96
21129;BME280;10722;51.910;8.352;2023-03-22T01:46:10;100201.34;;;9.90;98.06
21129;BME280;10722;51.910;8.352;2023-03-22T01:48:55;100191.09;;;9.97;97.79
21129;BME280;10722;51.910;8.352;2023-03-22T01:51:42;100179.94;;;10.01;97.46
21129;BME280;10722;51.910;8.352;2023-03-22T01:54:48;100183.34;;;9.97;97.53
21129;BME280;10722;51.910;8.352;2023-03-22T01:57:37;100185.75;;;9.85;98.01
21129;BME280;10722;51.910;8.352;2023-03-22T02:00:22;100199.63;;;9.92;97.85
21129;BME280;10722;51.910;8.352;2023-03-22T02:03:12;100186.72;;;9.92;97.64
21129;BME280;10722;51.910;8.352;2023-03-22T02:05:59;100195.41;;;9.97;97.69
21129;BME280;10722;51.910;8.352;2023-03-22T02:08:45;100185.84;;;9.93;98.02
21129;BME280;10722;51.910;8.352;2023-03-22T02:11:33;100184.13;;;9.93;97.65
21129;BME280;10722;51.910;8.352;2023-03-22T02:27:05;100159.31;;;10.06;96.62
21129;BME280;10722;51.910;8.352;2023-03-22T02:30:23;100157.56;;;10.05;96.87
21129;BME280;10722;51.910;8.352;2023-03-22T02:48:12;100163.34;;;9.81;98.21
21129;BME280;10722;51.910;8.352;2023-03-22T02:51:03;100172.75;;;9.76;98.83
21129;BME280;10722;51.910;8.352;2023-03-22T02:57:05;100161.47;;;9.71;98.98
21129;BME280;10722;51.910;8.352;2023-03-22T02:59:54;100158.91;;;9.69;99.18
21129;BME280;10722;51.910;8.352;2023-03-22T03:02:46;100161.44;;;9.68;99.30
21129;BME280;10722;51.910;8.352;2023-03-22T03:05:33;100165.69;;;9.61;99.44
21129;BME280;10722;51.910;8.352;2023-03-22T03:08:19;100160.53;;;9.61;99.69
21129;BME280;10722;51.910;8.352;2023-03-22T03:11:05;100159.69;;;9.63;99.66
21129;BME280;10722;51.910;8.352;2023-03-22T03:13:50;100157.91;;;9.59;99.77
21129;BME280;10722;51.910;8.352;2023-03-22T03:16:36;100157.00;;;9.56;100.00
21129;BME280;10722;51.910;8.352;2023-03-22T03:19:29;100160.44;;;9.55;100.00
21129;BME280;10722;51.910;8.352;2023-03-22T03:31:42;100155.25;;;9.53;100.00
21129;BME280;10722;51.910;8.352;2023-03-22T03:37:30;100152.72;;;9.58;100.00
21129;BME280;10722;51.910;8.352;2023-03-22T03:40:42;100155.28;;;9.55;100.00
21129;BME280;10722;51.910;8.352;2023-03-22T03:43:30;100158.72;;;9.57;100.00
21129;BME280;10722;51.910;8.352;2023-03-22T03:46:17;100153.59;;;9.60;100.00
21129;BME280;10722;51.910;8.352;2023-03-22T03:49:03;100145.88;;;9.61;100.00
21129;BME280;10722;51.910;8.352;2023-03-22T03:51:51;100140.75;;;9.63;100.00
21129;BME280;10722;51.910;8.352;2023-03-22T03:54:37;100141.56;;;9.62;100.00
21129;BME280;10722;51.910;8.352;2023-03-22T03:57:22;100146.75;;;9.62;100.00
21129;BME280;10722;51.910;8.352;2023-03-22T04:00:09;100146.78;;;9.65;100.00
21129;BME280;10722;51.910;8.352;2023-03-22T04:02:55;100154.56;;;9.68;100.00
21129;BME280;10722;51.910;8.352;2023-03-22T04:05:35;100142.53;;;9.70;100.00
21129;BME280;10722;51.910;8.352;2023-03-22T04:08:20;100151.97;;;9.68;100.00
21129;BME280;10722;51.910;8.352;2023-03-22T04:11:06;100148.53;;;9.68;100.00
21129;BME280;10722;51.910;8.352;2023-03-22T04:13:51;100146.91;;;9.74;100.00
21129;BME280;10722;51.910;8.352;2023-03-22T04:16:36;100144.28;;;9.73;100.00
21129;BME280;10722;51.910;8.352;2023-03-22T04:19:22;100145.16;;;9.72;100.00
21129;BME280;10722;51.910;8.352;2023-03-22T04:22:07;100133.06;;;9.69;100.00
21129;BME280;10722;51.910;8.352;2023-03-22T04:24:52;100128.78;;;9.73;100.00
21129;BME280;10722;51.910;8.352;2023-03-22T04:27:39;100131.34;;;9.71;100.00
21129;BME280;10722;51.910;8.352;2023-03-22T04:30:24;100135.66;;;9.71;100.00
21129;BME280;10722;51.910;8.352;2023-03-22T04:33:10;100139.97;;;9.69;100.00
21129;BME280;10722;51.910;8.352;2023-03-22T04:35:55;100127.94;;;9.74;100.00
21129;BME280;10722;51.910;8.352;2023-03-22T04:38:41;100127.88;;;9.66;100.00
21129;BME280;10722;51.910;8.352;2023-03-22T04:41:26;100126.97;;;9.64;100.00
21129;BME280;10722;51.910;8.352;2023-03-22T04:44:14;100130.38;;;9.61;100.00
21129;BME280;10722;51.910;8.352;2023-03-22T04:47:00;100130.41;;;9.63;100.00
21129;BME280;10722;51.910;8.352;2023-03-22T04:49:45;100125.22;;;9.61;100.00
21129;BME280;10722;51.910;8.352;2023-03-22T04:52:30;100129.53;;;9.61;100.00
21129;BME280;10722;51.910;8.352;2023-03-22T04:55:15;100127.84;;;9.63;100.00
21129;BME280;10722;51.910;8.352;2023-03-22T04:58:01;100127.78;;;9.60;100.00
21129;BME280;10722;51.910;8.352;2023-03-22T05:00:47;100124.34;;;9.61;100.00
21129;BME280;10722;51.910;8.352;2023-03-22T05:03:32;100126.09;;;9.60;100.00
21129;BME280;10722;51.910;8.352;2023-03-22T05:06:18;100125.16;;;9.57;100.00
21129;BME280;10722;51.910;8.352;2023-03-22T05:09:04;100131.19;;;9.56;100.00
21129;BME280;10722;51.910;8.352;2023-03-22T05:11:49;100118.16;;;9.48;100.00
21129;BME280;10722;51.910;8.352;2023-03-22T05:14:35;100125.84;;;9.40;100.00
21129;BME280;10722;51.910;8.352;2023-03-22T05:17:20;100120.59;;;9.37;100.00
21129;BME280;10722;51.910;8.352;2023-03-22T05:20:06;100114.53;;;9.32;100.00
21129;BME280;10722;51.910;8.352;2023-03-22T05:22:52;100117.88;;;9.24;100.00
21129;BME280;10722;51.910;8.352;2023-03-22T05:25:38;100127.34;;;9.26;100.00
21129;BME280;10722;51.910;8.352;2023-03-22T05:28:24;100117.84;;;9.22;100.00
21129;BME280;10722;51.910;8.352;2023-03-22T05:31:09;100133.25;;;9.17;100.00
21129;BME280;10722;51.910;8.352;2023-03-22T05:33:54;100129.84;;;9.18;100.00
21129;BME280;10722;51.910;8.352;2023-03-22T05:36:39;100132.38;;;9.15;100.00
21129;BME280;10722;51.910;8.352;2023-03-22T05:39:24;100122.91;;;9.14;100.00
21129;BME280;10722;51.910;8.352;2023-03-22T05:42:10;100122.75;;;9.04;100.00
21129;BME280;10722;51.910;8.352;2023-03-22T05:44:56;100121.84;;;8.98;100.00
21129;BME280;10722;51.910;8.352;2023-03-22T05:47:41;100131.25;;;8.98;100.00
21129;BME280;10722;51.910;8.352;2023-03-22T05:50:26;100134.69;;;8.97;100.00
21129;BME280;10722;51.910;8.352;2023-03-22T05:53:11;100135.59;;;9.01;100.00
21129;BME280;10722;51.910;8.352;2023-03-22T05:55:57;100133.91;;;9.03;100.00
21129;BME280;10722;51.910;8.352;2023-03-22T05:58:43;100136.56;;;9.07;100.00
21129;BME280;10722;51.910;8.352;2023-03-22T06:01:28;100142.56;;;9.06;100.00
21129;BME280;10722;51.910;8.352;2023-03-22T06:04:13;100132.38;;;9.15;100.00
21129;BME280;10722;51.910;8.352;2023-03-22T06:06:59;100137.75;;;9.31;100.00
21129;BME280;10722;51.910;8.352;2023-03-22T06:09:45;100115.53;;;9.43;100.00
21129;BME280;10722;51.910;8.352;2023-03-22T06:12:30;100115.56;;;9.45;100.00
21129;BME280;10722;51.910;8.352;2023-03-22T06:15:16;100117.41;;;9.57;100.00
21129;BME280;10722;51.910;8.352;2023-03-22T06:18:01;100111.50;;;9.67;100.00
21129;BME280;10722;51.910;8.352;2023-03-22T06:20:47;100112.44;;;9.72;100.00
21129;BME280;10722;51.910;8.352;2023-03-22T06:23:32;100090.16;;;9.83;100.00
21129;BME280;10722;51.910;8.352;2023-03-22T06:26:18;100095.44;;;9.91;100.00
21129;BME280;10722;51.910;8.352;2023-03-22T06:29:03;100097.00;;;9.78;100.00
21129;BME280;10722;51.910;8.352;2023-03-22T06:31:48;100076.38;;;9.80;100.00
21129;BME280;10722;51.910;8.352;2023-03-22T06:34:33;100089.31;;;9.83;100.00
21129;BME280;10722;51.910;8.352;2023-03-22T06:37:19;100083.31;;;9.85;100.00
21129;BME280;10722;51.910;8.352;2023-03-22T06:40:05;100079.91;;;9.93;100.00
21129;BME280;10722;51.910;8.352;2023-03-22T06:42:50;100093.84;;;10.07;100.00
21129;BME280;10722;51.910;8.352;2023-03-22T06:45:36;100079.19;;;10.06;100.00
21129;BME280;10722;51.910;8.352;2023-03-22T06:48:22;100075.72;;;10.04;100.00
21129;BME280;10722;51.910;8.352;2023-03-22T06:51:07;100071.38;;;10.01;100.00
21129;BME280;10722;51.910;8.352;2023-03-22T06:53:53;100073.97;;;10.01;99.82
21129;BME280;10722;51.910;8.352;2023-03-22T06:56:38;100067.97;;;10.04;100.00
21129;BME280;10722;51.910;8.352;2023-03-22T06:59:24;100061.09;;;10.07;99.73
21129;BME280;10722;51.910;8.352;2023-03-22T07:02:11;100055.94;;;10.06;99.98
21129;BME280;10722;51.910;8.352;2023-03-22T07:04:56;100073.16;;;10.07;100.00
21129;BME280;10722;51.910;8.352;2023-03-22T07:07:41;100068.91;;;10.12;99.90
21129;BME280;10722;51.910;8.352;2023-03-22T07:10:28;100062.88;;;10.13;99.80
21129;BME280;10722;51.910;8.352;2023-03-22T07:13:13;100056.88;;;10.16;99.27
21129;BME280;10722;51.910;8.352;2023-03-22T07:16:00;100062.09;;;10.22;99.65
21129;BME280;10722;51.910;8.352;2023-03-22T07:18:45;100055.31;;;10.33;99.32
21129;BME280;10722;51.910;8.352;2023-03-22T07:21:31;100058.81;;;10.40;98.96
21129;BME280;10722;51.910;8.352;2023-03-22T07:24:16;100046.78;;;10.46;98.64
21129;BME280;10722;51.910;8.352;2023-03-22T07:27:02;100029.59;;;10.51;98.13
21129;BME280;10722;51.910;8.352;2023-03-22T07:29:48;100031.34;;;10.54;98.47
21129;BME280;10722;51.910;8.352;2023-03-22T07:32:33;100028.75;;;10.51;98.06
21129;BME280;10722;51.910;8.352;2023-03-22T07:35:18;100033.06;;;10.55;98.11
21129;BME280;10722;51.910;8.352;2023-03-22T07:38:04;100025.34;;;10.60;98.11
21129;BME280;10722;51.910;8.352;2023-03-22T07:40:53;100027.91;;;10.61;97.99
21129;BME280;10722;51.910;8.352;2023-03-22T07:43:39;100007.25;;;10.63;97.33
21129;BME280;10722;51.910;8.352;2023-03-22T07:46:39;100014.16;;;10.65;97.39
21129;BME280;10722;51.910;8.352;2023-03-22T07:49:24;100003.84;;;10.68;96.96
21129;BME280;10722;51.910;8.352;2023-03-22T07:52:10;100007.31;;;10.70;96.76
21129;BME280;10722;51.910;8.352;2023-03-22T07:54:55;100013.31;;;10.72;96.02
21129;BME280;10722;51.910;8.352;2023-03-22T07:57:40;99981.44;;;10.73;95.33
21129;BME280;10722;51.910;8.352;2023-03-22T08:00:26;99994.41;;;10.76;95.86
21129;BME280;10722;51.910;8.352;2023-03-22T08:03:11;99989.22;;;10.76;95.75
21129;BME280;10722;51.910;8.352;2023-03-22T08:06:00;99984.03;;;10.81;95.87
21129;BME280;10722;51.910;8.352;2023-03-22T08:08:45;99995.25;;;10.80;95.39
21129;BME280;10722;51.910;8.352;2023-03-22T08:11:30;99991.88;;;10.87;95.19
21129;BME280;10722;51.910;8.352;2023-03-22T08:14:16;99996.22;;;10.96;94.67
21129;BME280;10722;51.910;8.352;2023-03-22T08:17:11;99972.97;;;11.11;93.89
21129;BME280;10722;51.910;8.352;2023-03-22T08:19:56;99986.81;;;11.21;93.73
21129;BME280;10722;51.910;8.352;2023-03-22T08:22:42;99950.59;;;11.33;92.28
21129;BME280;10722;51.910;8.352;2023-03-22T08:25:28;99944.56;;;11.40;91.39
21129;BME280;10722;51.910;8.352;2023-03-22T08:28:13;99937.66;;;11.41;90.95
21129;BME280;10722;51.910;8.352;2023-03-22T08:30:59;99934.19;;;11.42;90.71
21129;BME280;10722;51.910;8.352;2023-03-22T08:33:45;99936.81;;;11.47;90.68
21129;BME280;10722;51.910;8.352;2023-03-22T08:36:30;99932.47;;;11.56;90.70
21129;BME280;10722;51.910;8.352;2023-03-22T08:39:16;99923.00;;;11.58;90.13
21129;BME280;10722;51.910;8.352;2023-03-22T08:42:01;99910.91;;;12.17;88.69
21129;BME280;10722;51.910;8.352;2023-03-22T08:44:47;99897.03;;;12.37;88.41
21129;BME280;10722;51.910;8.352;2023-03-22T08:47:32;99880.56;;;12.41;86.88
21129;BME280;10722;51.910;8.352;2023-03-22T08:50:17;99859.00;;;12.22;86.63
21129;BME280;10722;51.910;8.352;2023-03-22T08:53:03;99862.53;;;12.02;86.75
21129;BME280;10722;51.910;8.352;2023-03-22T08:55:48;99853.03;;;11.83;86.58
21129;BME280;10722;51.910;8.352;2023-03-22T08:58:52;99883.22;;;12.25;86.87
21129;BME280;10722;51.910;8.352;2023-03-22T09:01:38;99886.69;;;12.18;86.63
21129;BME280;10722;51.910;8.352;2023-03-22T09:04:23;99858.09;;;12.38;85.89
21129;BME280;10722;51.910;8.352;2023-03-22T09:07:09;99857.28;;;12.24;85.72
21129;BME280;10722;51.910;8.352;2023-03-22T09:09:54;99850.41;;;12.12;85.79
21129;BME280;10722;51.910;8.352;2023-03-22T09:12:39;99853.00;;;12.12;85.86
21129;BME280;10722;51.910;8.352;2023-03-22T09:15:25;99872.00;;;12.13;85.80
21129;BME280;10722;51.910;8.352;2023-03-22T09:18:11;99852.13;;;12.15;85.55
21129;BME280;10722;51.910;8.352;2023-03-22T09:20:56;99849.53;;;12.18;85.18
21129;BME280;10722;51.910;8.352;2023-03-22T09:23:42;99863.31;;;12.27;85.20
21129;BME280;10722;51.910;8.352;2023-03-22T09:26:27;99833.03;;;12.34;83.94
21129;BME280;10722;51.910;8.352;2023-03-22T09:29:12;99842.47;;;12.53;83.99
21129;BME280;10722;51.910;8.352;2023-03-22T09:31:58;99861.53;;;12.46;83.57
21129;BME280;10722;51.910;8.352;2023-03-22T09:34:43;99805.31;;;12.44;82.77
21129;BME280;10722;51.910;8.352;2023-03-22T09:37:29;99788.72;;;12.72;81.54
21129;BME280;10722;51.910;8.352;2023-03-22T09:40:15;99776.53;;;12.90;80.52
21129;BME280;10722;51.910;8.352;2023-03-22T09:43:06;99737.78;;;12.61;79.31
21129;BME280;10722;51.910;8.352;2023-03-22T09:45:53;99743.88;;;12.56;78.56
21129;BME280;10722;51.910;8.352;2023-03-22T09:48:41;99748.91;;;12.78;78.35
21129;BME280;10722;51.910;8.352;2023-03-22T09:51:36;99759.28;;;12.81;79.08
21129;BME280;10722;51.910;8.352;2023-03-22T09:54:31;99748.81;;;12.93;78.87
21129;BME280;10722;51.910;8.352;2023-03-22T09:57:31;99719.63;;;12.62;77.98
21129;BME280;10722;51.910;8.352;2023-03-22T10:00:34;99750.72;;;12.70;78.73
21129;BME280;10722;51.910;8.352;2023-03-22T10:04:08;99745.47;;;12.76;78.23
21129;BME280;10722;51.910;8.352;2023-03-22T10:07:22;99761.78;;;12.93;78.58
21129;BME280;10722;51.910;8.352;2023-03-22T10:10:17;99753.78;;;13.21;77.52
21129;BME280;10722;51.910;8.352;2023-03-22T10:13:20;99727.06;;;13.05;76.49
21129;BME280;10722;51.910;8.352;2023-03-22T10:16:12;99715.06;;;12.92;76.10
21129;BME280;10722;51.910;8.352;2023-03-22T10:19:11;99719.13;;;13.27;76.70
21129;BME280;10722;51.910;8.352;2023-03-22T10:22:01;99724.38;;;13.16;75.69
21129;BME280;10722;51.910;8.352;2023-03-22T10:24:49;99696.53;;;13.32;75.65
21129;BME280;10722;51.910;8.352;2023-03-22T10:27:36;99724.72;;;13.72;75.86
21129;BME280;10722;51.910;8.352;2023-03-22T10:30:29;99685.28;;;13.33;75.11
21129;BME280;10722;51.910;8.352;2023-03-22T10:34:25;99674.25;;;13.08;74.72
21129;BME280;10722;51.910;8.352;2023-03-22T10:36:37;99704.53;;;13.10;75.44
21129;BME280;10722;51.910;8.352;2023-03-22T10:42:17;99700.06;;;13.26;74.88
21129;BME280;10722;51.910;8.352;2023-03-22T10:45:12;99724.25;;;13.33;75.33
21129;BME280;10722;51.910;8.352;2023-03-22T10:48:02;99706.28;;;13.07;74.73
21129;BME280;10722;51.910;8.352;2023-03-22T10:50:49;99710.63;;;13.05;74.85
21129;BME280;10722;51.910;8.352;2023-03-22T10:53:45;99706.34;;;12.97;74.38
21129;BME280;10722;51.910;8.352;2023-03-22T10:56:31;99721.03;;;13.01;75.09
21129;BME280;10722;51.910;8.352;2023-03-22T10:59:48;99741.63;;;13.24;75.13
21129;BME280;10722;51.910;8.352;2023-03-22T11:02:34;99719.09;;;13.28;73.95
21129;BME280;10722;51.910;8.352;2023-03-22T11:05:24;99697.34;;;13.37;73.22
21129;BME280;10722;51.910;8.352;2023-03-22T11:08:13;99697.16;;;13.57;72.67
21129;BME280;10722;51.910;8.352;2023-03-22T11:10:58;99703.00;;;13.76;72.23
21129;BME280;10722;51.910;8.352;2023-03-22T11:13:50;99678.13;;;13.53;71.93
21129;BME280;10722;51.910;8.352;2023-03-22T11:16:57;99710.63;;;13.91;71.97
21129;BME280;10722;51.910;8.352;2023-03-22T11:20:03;99667.50;;;13.75;70.70
21129;BME280;10722;51.910;8.352;2023-03-22T11:22:52;99671.22;;;13.51;70.41
21129;BME280;10722;51.910;8.352;2023-03-22T11:25:44;99693.69;;;13.56;71.43
21129;BME280;10722;51.910;8.352;2023-03-22T11:28:44;99705.09;;;13.43;71.12
21129;BME280;10722;51.910;8.352;2023-03-22T11:32:13;99712.97;;;13.35;71.18
21129;BME280;10722;51.910;8.352;2023-03-22T11:35:12;99731.09;;;13.41;71.61
21129;BME280;10722;51.910;8.352;2023-03-22T11:37:57;99727.53;;;13.49;71.87
21129;BME280;10722;51.910;8.352;2023-03-22T11:40:50;99769.81;;;13.69;73.03
21129;BME280;10722;51.910;8.352;2023-03-22T11:43:39;99787.84;;;13.81;73.14
21129;BME280;10722;51.910;8.352;2023-03-22T11:46:25;99773.97;;;13.82;73.14
21129;BME280;10722;51.910;8.352;2023-03-22T11:49:13;99786.97;;;13.84;73.38
21129;BME280;10722;51.910;8.352;2023-03-22T11:52:07;99758.59;;;13.64;73.06
21129;BME280;10722;51.910;8.352;2023-03-22T11:54:54;99780.84;;;13.89;73.13
21129;BME280;10722;51.910;8.352;2023-03-22T11:57:41;99773.75;;;14.04;72.73
21129;BME280;10722;51.910;8.352;2023-03-22T12:00:28;99746.09;;;13.97;72.81
21129;BME280;10722;51.910;8.352;2023-03-22T12:03:17;99731.31;;;13.99;72.04
21129;BME280;10722;51.910;8.352;2023-03-22T12:06:32;99708.94;;;13.88;71.05
21129;BME280;10722;51.910;8.352;2023-03-22T12:09:34;99720.75;;;14.12;71.44
21129;BME280;10722;51.910;8.352;2023-03-22T12:12:29;99695.44;;;14.25;70.39
21129;BME280;10722;51.910;8.352;2023-03-22T12:15:28;99689.63;;;14.05;70.37
21129;BME280;10722;51.910;8.352;2023-03-22T12:18:23;99706.75;;;14.21;70.40
21129;BME280;10722;51.910;8.352;2023-03-22T12:21:10;99700.41;;;14.41;69.54
21129;BME280;10722;51.910;8.352;2023-03-22T12:24:00;99678.03;;;14.30;69.13
21129;BME280;10722;51.910;8.352;2023-03-22T12:26:46;99645.25;;;14.17;68.19
21129;BME280;10722;51.910;8.352;2023-03-22T12:29:32;99656.53;;;14.18;68.27
21129;BME280;10722;51.910;8.352;2023-03-22T12:32:24;99623.22;;;13.79;67.95
21129;BME280;10722;51.910;8.352;2023-03-22T12:35:14;99633.75;;;13.70;67.97
21129;BME280;10722;51.910;8.352;2023-03-22T12:38:18;99661.25;;;13.89;68.56
21129;BME280;10722;51.910;8.352;2023-03-22T12:41:13;99663.13;;;13.78;68.24
21129;BME280;10722;51.910;8.352;2023-03-22T12:44:23;99642.19;;;13.87;67.68
21129;BME280;10722;51.910;8.352;2023-03-22T12:47:23;99631.66;;;14.00;67.25
21129;BME280;10722;51.910;8.352;2023-03-22T12:50:22;99584.09;;;13.92;65.44
21129;BME280;10722;51.910;8.352;2023-03-22T12:53:14;99617.81;;;13.96;66.39
21129;BME280;10722;51.910;8.352;2023-03-22T12:56:01;99630.25;;;13.71;66.96
21129;BME280;10722;51.910;8.352;2023-03-22T12:58:53;99658.97;;;13.62;67.72
21129;BME280;10722;51.910;8.352;2023-03-22T13:01:53;99647.09;;;13.41;67.42
21129;BME280;10722;51.910;8.352;2023-03-22T13:04:48;99693.09;;;13.31;69.03
21129;BME280;10722;51.910;8.352;2023-03-22T13:07:50;99690.59;;;13.19;69.80
21129;BME280;10722;51.910;8.352;2023-03-22T13:10:39;99737.50;;;12.99;71.51
21129;BME280;10722;51.910;8.352;2023-03-22T13:18:58;99807.75;;;12.79;75.16
21129;BME280;10722;51.910;8.352;2023-03-22T13:21:47;99801.72;;;12.74;75.19
21129;BME280;10722;51.910;8.352;2023-03-22T13:24:32;99811.19;;;12.78;75.25
21129;BME280;10722;51.910;8.352;2023-03-22T13:27:20;99799.06;;;12.80;74.55
21129;BME280;10722;51.910;8.352;2023-03-22T13:36:04;99776.41;;;13.00;73.40
21129;BME280;10722;51.910;8.352;2023-03-22T13:38:56;99785.06;;;13.07;73.52
21129;BME280;10722;51.910;8.352;2023-03-22T13:41:46;99768.59;;;13.10;73.24
21129;BME280;10722;51.910;8.352;2023-03-22T13:44:38;99794.47;;;13.19;74.09
21129;BME280;10722;51.910;8.352;2023-03-22T13:48:26;99761.53;;;13.24;71.95
21129;BME280;10722;51.910;8.352;2023-03-22T13:50:42;99757.19;;;13.29;71.69
21129;BME280;10722;51.910;8.352;2023-03-22T13:53:29;99748.50;;;13.33;71.81
21129;BME280;10722;51.910;8.352;2023-03-22T13:56:31;99746.72;;;13.38;71.95
21129;BME280;10722;51.910;8.352;2023-03-22T14:02:31;99730.31;;;13.32;71.62
21129;BME280;10722;51.910;8.352;2023-03-22T14:05:21;99724.31;;;13.23;70.73
21129;BME280;10722;51.910;8.352;2023-03-22T14:08:16;99712.19;;;13.22;70.48
21129;BME280;10722;51.910;8.352;2023-03-22T14:11:25;99717.38;;;13.24;70.28
21129;BME280;10722;51.910;8.352;2023-03-22T14:14:21;99721.75;;;13.19;70.34
21129;BME280;10722;51.910;8.352;2023-03-22T14:20:00;99727.88;;;13.13;71.29
21129;BME280;10722;51.910;8.352;2023-03-22T14:22:53;99701.88;;;13.15;69.76
21129;BME280;10722;51.910;8.352;2023-03-22T14:25:39;99692.38;;;13.14;68.25
21129;BME280;10722;51.910;8.352;2023-03-22T14:28:35;99665.53;;;13.12;67.65
21129;BME280;10722;51.910;8.352;2023-03-22T14:31:26;99665.56;;;13.09;67.81
21129;BME280;10722;51.910;8.352;2023-03-22T14:34:14;99642.19;;;13.10;67.14
21129;BME280;10722;51.910;8.352;2023-03-22T14:37:01;99659.59;;;13.02;67.48
21129;BME280;10722;51.910;8.352;2023-03-22T14:39:47;99696.91;;;12.90;68.70
21129;BME280;10722;51.910;8.352;2023-03-22T14:42:32;99683.94;;;12.90;68.53
21129;BME280;10722;51.910;8.352;2023-03-22T14:45:18;99689.88;;;13.00;68.56
21129;BME280;10722;51.910;8.352;2023-03-22T14:48:12;99695.09;;;13.01;68.80
21129;BME280;10722;51.910;8.352;2023-03-22T14:50:56;99660.50;;;12.96;67.99
21129;BME280;10722;51.910;8.352;2023-03-22T14:53:43;99675.16;;;13.04;68.46
21129;BME280;10722;51.910;8.352;2023-03-22T14:56:32;99648.38;;;12.98;67.99
21129;BME280;10722;51.910;8.352;2023-03-22T14:59:20;99660.41;;;13.07;68.05
21129;BME280;10722;51.910;8.352;2023-03-22T15:02:21;99657.72;;;13.15;67.66
21129;BME280;10722;51.910;8.352;2023-03-22T15:05:08;99643.06;;;13.11;67.18
21129;BME280;10722;51.910;8.352;2023-03-22T15:08:06;99661.16;;;13.17;67.83
21129;BME280;10722;51.910;8.352;2023-03-22T15:10:58;99680.25;;;13.13;67.51
21129;BME280;10722;51.910;8.352;2023-03-22T15:13:45;99665.59;;;13.06;67.66
21129;BME280;10722;51.910;8.352;2023-03-22T15:16:32;99661.31;;;13.00;68.35
21129;BME280;10722;51.910;8.352;2023-03-22T15:19:19;99682.19;;;12.92;67.93
21129;BME280;10722;51.910;8.352;2023-03-22T15:22:15;99689.97;;;12.89;68.37
21129;BME280;10722;51.910;8.352;2023-03-22T15:25:01;99696.91;;;12.90;69.12
21129;BME280;10722;51.910;8.352;2023-03-22T15:27:46;99702.09;;;12.89;69.11
21129;BME280;10722;51.910;8.352;2023-03-22T15:30:32;99700.38;;;12.86;69.32
21129;BME280;10722;51.910;8.352;2023-03-22T15:33:31;99694.34;;;12.87;69.37
21129;BME280;10722;51.910;8.352;2023-03-22T15:36:17;99685.66;;;12.88;69.36
21129;BME280;10722;51.910;8.352;2023-03-22T15:39:04;99693.47;;;12.90;69.83
21129;BME280;10722;51.910;8.352;2023-03-22T15:42:11;99696.09;;;12.87;69.62
21129;BME280;10722;51.910;8.352;2023-03-22T15:45:00;99709.94;;;12.83;70.06
21129;BME280;10722;51.910;8.352;2023-03-22T15:47:46;99701.31;;;12.79;70.14
21129;BME280;10722;51.910;8.352;2023-03-22T15:50:37;99721.25;;;12.75;70.43
21129;BME280;10722;51.910;8.352;2023-03-22T15:53:29;99717.78;;;12.75;70.74
21129;BME280;10722;51.910;8.352;2023-03-22T15:56:23;99740.31;;;12.73;71.10